sensor_id;sensor_type;location;lat;lon;timestamp;temperature;humidity
65584;DHT22;70321;43.592;1.456;2023-06-24T00:00:05;23.11;69.26
65584;DHT22;70321;43.592;1.456;2023-06-24T00:02:33;23.07;69.04
65584;DHT22;70321;43.592;1.456;2023-06-24T00:05:01;23.09;69.02
65584;DHT22;70321;43.592;1.456;2023-06-24T00:07:28;23.01;68.90
65584;DHT22;70321;43.592;1.456;2023-06-24T00:09:53;22.98;68.84
65584;DHT22;70321;43.592;1.456;2023-06-24T00:12:19;22.97;68.92
65584;DHT22;70321;43.592;1.456;2023-06-24T00:14:49;22.97;68.97
65584;DHT22;70321;43.592;1.456;2023-06-24T00:17:15;22.92;69.07
65584;DHT22;70321;43.592;1.456;2023-06-24T00:19:41;22.88;69.02
65584;DHT22;70321;43.592;1.456;2023-06-24T00:22:09;22.85;69.07
65584;DHT22;70321;43.592;1.456;2023-06-24T00:24:34;22.81;68.40
65584;DHT22;70321;43.592;1.456;2023-06-24T00:27:00;22.79;68.89
65584;DHT22;70321;43.592;1.456;2023-06-24T00:29:25;22.77;69.47
65584;DHT22;70321;43.592;1.456;2023-06-24T00:31:51;22.77;69.27
65584;DHT22;70321;43.592;1.456;2023-06-24T00:34:16;22.74;69.52
65584;DHT22;70321;43.592;1.456;2023-06-24T00:36:45;22.71;69.57
65584;DHT22;70321;43.592;1.456;2023-06-24T00:39:12;22.71;69.78
65584;DHT22;70321;43.592;1.456;2023-06-24T00:41:38;22.68;69.74
65584;DHT22;70321;43.592;1.456;2023-06-24T00:44:03;22.60;69.01
65584;DHT22;70321;43.592;1.456;2023-06-24T00:46:29;22.60;69.58
65584;DHT22;70321;43.592;1.456;2023-06-24T00:48:57;22.53;69.23
65584;DHT22;70321;43.592;1.456;2023-06-24T00:51:23;22.48;69.76
65584;DHT22;70321;43.592;1.456;2023-06-24T00:53:54;22.45;69.95
65584;DHT22;70321;43.592;1.456;2023-06-24T00:56:21;22.44;70.11
65584;DHT22;70321;43.592;1.456;2023-06-24T00:58:49;22.41;69.49
65584;DHT22;70321;43.592;1.456;2023-06-24T01:01:16;22.40;69.70
65584;DHT22;70321;43.592;1.456;2023-06-24T01:03:42;22.36;70.13
65584;DHT22;70321;43.592;1.456;2023-06-24T01:06:08;22.34;70.04
65584;DHT22;70321;43.592;1.456;2023-06-24T01:08:34;22.29;70.35
65584;DHT22;70321;43.592;1.456;2023-06-24T01:11:00;22.23;70.28
65584;DHT22;70321;43.592;1.456;2023-06-24T01:13:26;22.20;70.75
65584;DHT22;70321;43.592;1.456;2023-06-24T01:15:51;22.14;70.59
65584;DHT22;70321;43.592;1.456;2023-06-24T01:18:24;22.13;71.35
65584;DHT22;70321;43.592;1.456;2023-06-24T01:21:12;22.09;71.25
65584;DHT22;70321;43.592;1.456;2023-06-24T01:26:21;22.04;71.84
65584;DHT22;70321;43.592;1.456;2023-06-24T01:29:09;22.02;71.83
65584;DHT22;70321;43.592;1.456;2023-06-24T01:31:59;21.96;71.08
65584;DHT22;70321;43.592;1.456;2023-06-24T01:37:16;21.86;72.11
65584;DHT22;70321;43.592;1.456;2023-06-24T01:39:56;21.80;72.10
65584;DHT22;70321;43.592;1.456;2023-06-24T01:42:22;21.75;72.30
65584;DHT22;70321;43.592;1.456;2023-06-24T01:44:49;21.72;72.49
65584;DHT22;70321;43.592;1.456;2023-06-24T01:47:21;21.72;72.86
65584;DHT22;70321;43.592;1.456;2023-06-24T01:49:49;21.66;72.90
65584;DHT22;70321;43.592;1.456;2023-06-24T01:52:17;21.65;72.64
65584;DHT22;70321;43.592;1.456;2023-06-24T01:54:47;21.62;72.91
65584;DHT22;70321;43.592;1.456;2023-06-24T01:57:13;21.58;73.19
65584;DHT22;70321;43.592;1.456;2023-06-24T01:59:41;21.59;73.62
65584;DHT22;70321;43.592;1.456;2023-06-24T02:02:08;21.56;73.42
65584;DHT22;70321;43.592;1.456;2023-06-24T02:04:33;21.55;73.71
65584;DHT22;70321;43.592;1.456;2023-06-24T02:07:02;21.50;73.92
65584;DHT22;70321;43.592;1.456;2023-06-24T02:09:29;21.50;74.03
65584;DHT22;70321;43.592;1.456;2023-06-24T02:12:01;21.49;74.36
65584;DHT22;70321;43.592;1.456;2023-06-24T02:14:28;21.48;74.40
65584;DHT22;70321;43.592;1.456;2023-06-24T02:16:55;21.45;74.45
65584;DHT22;70321;43.592;1.456;2023-06-24T02:19:25;21.45;74.63
65584;DHT22;70321;43.592;1.456;2023-06-24T02:21:52;21.38;74.57
65584;DHT22;70321;43.592;1.456;2023-06-24T02:24:21;21.35;74.39
65584;DHT22;70321;43.592;1.456;2023-06-24T02:26:46;21.29;74.93
65584;DHT22;70321;43.592;1.456;2023-06-24T02:29:12;21.26;74.80
65584;DHT22;70321;43.592;1.456;2023-06-24T02:31:38;21.24;75.31
65584;DHT22;70321;43.592;1.456;2023-06-24T02:34:04;21.19;75.69
65584;DHT22;70321;43.592;1.456;2023-06-24T02:36:29;21.14;75.57
65584;DHT22;70321;43.592;1.456;2023-06-24T02:38:55;21.12;75.76
65584;DHT22;70321;43.592;1.456;2023-06-24T02:41:20;21.12;75.61
65584;DHT22;70321;43.592;1.456;2023-06-24T02:43:45;21.06;75.58
65584;DHT22;70321;43.592;1.456;2023-06-24T02:46:11;21.08;76.11
65584;DHT22;70321;43.592;1.456;2023-06-24T02:48:38;21.08;76.26
65584;DHT22;70321;43.592;1.456;2023-06-24T02:51:04;21.08;76.06
65584;DHT22;70321;43.592;1.456;2023-06-24T02:53:30;21.08;76.33
65584;DHT22;70321;43.592;1.456;2023-06-24T02:55:56;21.11;76.60
65584;DHT22;70321;43.592;1.456;2023-06-24T02:58:23;21.09;76.51
65584;DHT22;70321;43.592;1.456;2023-06-24T03:00:49;21.11;76.34
65584;DHT22;70321;43.592;1.456;2023-06-24T03:03:15;21.11;76.46
65584;DHT22;70321;43.592;1.456;2023-06-24T03:05:41;21.09;76.57
65584;DHT22;70321;43.592;1.456;2023-06-24T03:08:10;21.08;76.67
65584;DHT22;70321;43.592;1.456;2023-06-24T03:10:36;21.11;76.77
65584;DHT22;70321;43.592;1.456;2023-06-24T03:13:02;21.11;76.57
65584;DHT22;70321;43.592;1.456;2023-06-24T03:15:28;21.08;76.57
65584;DHT22;70321;43.592;1.456;2023-06-24T03:17:54;21.05;76.57
65584;DHT22;70321;43.592;1.456;2023-06-24T03:20:20;20.99;76.70
65584;DHT22;70321;43.592;1.456;2023-06-24T03:22:46;20.99;76.68
65584;DHT22;70321;43.592;1.456;2023-06-24T03:25:11;20.98;76.77
65584;DHT22;70321;43.592;1.456;2023-06-24T03:27:36;20.99;76.97
65584;DHT22;70321;43.592;1.456;2023-06-24T03:30:02;20.99;75.26
65584;DHT22;70321;43.592;1.456;2023-06-24T03:32:28;20.96;75.95
65584;DHT22;70321;43.592;1.456;2023-06-24T03:34:53;20.95;76.44
65584;DHT22;70321;43.592;1.456;2023-06-24T03:37:19;20.92;76.52
65584;DHT22;70321;43.592;1.456;2023-06-24T03:39:44;20.88;76.53
65584;DHT22;70321;43.592;1.456;2023-06-24T03:42:10;20.85;76.46
65584;DHT22;70321;43.592;1.456;2023-06-24T03:44:35;20.77;76.53
65584;DHT22;70321;43.592;1.456;2023-06-24T03:47:00;20.70;76.49
65584;DHT22;70321;43.592;1.456;2023-06-24T03:49:26;20.67;76.54
65584;DHT22;70321;43.592;1.456;2023-06-24T03:51:51;20.68;77.22
65584;DHT22;70321;43.592;1.456;2023-06-24T03:54:17;20.64;76.96
65584;DHT22;70321;43.592;1.456;2023-06-24T03:56:42;20.64;77.40
65584;DHT22;70321;43.592;1.456;2023-06-24T03:59:08;20.63;77.65
65584;DHT22;70321;43.592;1.456;2023-06-24T04:01:33;20.63;77.41
65584;DHT22;70321;43.592;1.456;2023-06-24T04:04:02;20.61;77.49
65584;DHT22;70321;43.592;1.456;2023-06-24T04:06:30;20.60;77.48
65584;DHT22;70321;43.592;1.456;2023-06-24T04:08:55;20.60;77.38
65584;DHT22;70321;43.592;1.456;2023-06-24T04:11:20;20.57;77.01
65584;DHT22;70321;43.592;1.456;2023-06-24T04:13:46;20.51;77.04
65584;DHT22;70321;43.592;1.456;2023-06-24T04:16:13;20.44;77.05
65584;DHT22;70321;43.592;1.456;2023-06-24T04:18:39;20.40;77.17
65584;DHT22;70321;43.592;1.456;2023-06-24T04:21:05;20.40;77.15
65584;DHT22;70321;43.592;1.456;2023-06-24T04:23:32;20.34;77.35
65584;DHT22;70321;43.592;1.456;2023-06-24T04:25:58;20.26;77.04
65584;DHT22;70321;43.592;1.456;2023-06-24T04:28:23;20.26;77.01
65584;DHT22;70321;43.592;1.456;2023-06-24T04:30:49;20.20;77.14
65584;DHT22;70321;43.592;1.456;2023-06-24T04:33:14;20.17;77.55
65584;DHT22;70321;43.592;1.456;2023-06-24T04:35:39;20.19;77.89
65584;DHT22;70321;43.592;1.456;2023-06-24T04:38:05;20.16;77.41
65584;DHT22;70321;43.592;1.456;2023-06-24T04:40:30;20.16;77.87
65584;DHT22;70321;43.592;1.456;2023-06-24T04:42:56;20.13;77.81
65584;DHT22;70321;43.592;1.456;2023-06-24T04:45:21;20.09;77.63
65584;DHT22;70321;43.592;1.456;2023-06-24T04:47:47;20.10;77.92
65584;DHT22;70321;43.592;1.456;2023-06-24T04:50:12;20.05;78.17
65584;DHT22;70321;43.592;1.456;2023-06-24T04:52:39;20.01;77.96
65584;DHT22;70321;43.592;1.456;2023-06-24T04:55:05;20.00;78.09
65584;DHT22;70321;43.592;1.456;2023-06-24T04:57:31;20.01;78.13
65584;DHT22;70321;43.592;1.456;2023-06-24T04:59:57;19.94;77.72
65584;DHT22;70321;43.592;1.456;2023-06-24T05:02:23;19.97;76.95
65584;DHT22;70321;43.592;1.456;2023-06-24T05:04:49;19.97;77.63
65584;DHT22;70321;43.592;1.456;2023-06-24T05:07:15;19.97;77.92
65584;DHT22;70321;43.592;1.456;2023-06-24T05:09:40;19.94;77.93
65584;DHT22;70321;43.592;1.456;2023-06-24T05:12:06;19.86;78.13
65584;DHT22;70321;43.592;1.456;2023-06-24T05:14:34;19.79;78.11
65584;DHT22;70321;43.592;1.456;2023-06-24T05:16:59;19.82;78.41
65584;DHT22;70321;43.592;1.456;2023-06-24T05:19:25;19.79;78.28
65584;DHT22;70321;43.592;1.456;2023-06-24T05:21:50;19.80;77.78
65584;DHT22;70321;43.592;1.456;2023-06-24T05:24:16;19.80;78.48
65584;DHT22;70321;43.592;1.456;2023-06-24T05:26:41;19.86;78.22
65584;DHT22;70321;43.592;1.456;2023-06-24T05:29:06;19.90;77.44
65584;DHT22;70321;43.592;1.456;2023-06-24T05:31:32;19.90;78.19
65584;DHT22;70321;43.592;1.456;2023-06-24T05:33:57;19.89;78.66
65584;DHT22;70321;43.592;1.456;2023-06-24T05:36:22;19.96;78.80
65584;DHT22;70321;43.592;1.456;2023-06-24T05:38:48;19.99;78.14
65584;DHT22;70321;43.592;1.456;2023-06-24T05:41:14;19.99;78.01
65584;DHT22;70321;43.592;1.456;2023-06-24T05:43:42;20.00;78.19
65584;DHT22;70321;43.592;1.456;2023-06-24T05:46:07;20.00;76.90
65584;DHT22;70321;43.592;1.456;2023-06-24T05:48:33;20.00;77.22
65584;DHT22;70321;43.592;1.456;2023-06-24T05:50:58;20.00;78.28
65584;DHT22;70321;43.592;1.456;2023-06-24T05:53:23;20.03;78.33
65584;DHT22;70321;43.592;1.456;2023-06-24T05:55:49;20.06;78.33
65584;DHT22;70321;43.592;1.456;2023-06-24T05:58:15;20.10;78.52
65584;DHT22;70321;43.592;1.456;2023-06-24T06:00:40;20.14;78.50
65584;DHT22;70321;43.592;1.456;2023-06-24T06:03:06;20.19;78.35
65584;DHT22;70321;43.592;1.456;2023-06-24T06:05:31;20.20;78.11
65584;DHT22;70321;43.592;1.456;2023-06-24T06:07:57;20.23;78.27
65584;DHT22;70321;43.592;1.456;2023-06-24T06:10:22;20.29;78.40
65584;DHT22;70321;43.592;1.456;2023-06-24T06:12:48;20.30;78.17
65584;DHT22;70321;43.592;1.456;2023-06-24T06:15:14;20.34;78.04
65584;DHT22;70321;43.592;1.456;2023-06-24T06:17:39;20.41;78.03
65584;DHT22;70321;43.592;1.456;2023-06-24T06:20:06;20.43;77.58
65584;DHT22;70321;43.592;1.456;2023-06-24T06:22:31;20.44;77.74
65584;DHT22;70321;43.592;1.456;2023-06-24T06:25:02;20.50;77.31
65584;DHT22;70321;43.592;1.456;2023-06-24T06:27:28;20.50;76.72
65584;DHT22;70321;43.592;1.456;2023-06-24T06:29:53;20.53;77.10
65584;DHT22;70321;43.592;1.456;2023-06-24T06:32:19;20.48;77.66
65584;DHT22;70321;43.592;1.456;2023-06-24T06:34:44;20.45;77.48
65584;DHT22;70321;43.592;1.456;2023-06-24T06:37:10;20.45;77.65
65584;DHT22;70321;43.592;1.456;2023-06-24T06:39:35;20.48;77.51
65584;DHT22;70321;43.592;1.456;2023-06-24T06:42:00;20.54;77.82
65584;DHT22;70321;43.592;1.456;2023-06-24T06:44:26;20.55;77.64
65584;DHT22;70321;43.592;1.456;2023-06-24T06:46:51;20.58;77.70
65584;DHT22;70321;43.592;1.456;2023-06-24T06:49:17;20.63;77.87
65584;DHT22;70321;43.592;1.456;2023-06-24T06:51:42;20.68;78.00
65584;DHT22;70321;43.592;1.456;2023-06-24T06:54:07;20.75;78.07
65584;DHT22;70321;43.592;1.456;2023-06-24T06:56:33;20.81;78.20
65584;DHT22;70321;43.592;1.456;2023-06-24T06:58:58;20.87;77.91
65584;DHT22;70321;43.592;1.456;2023-06-24T07:01:23;20.92;77.83
65584;DHT22;70321;43.592;1.456;2023-06-24T07:03:50;20.96;77.69
65584;DHT22;70321;43.592;1.456;2023-06-24T07:06:18;21.04;77.46
65584;DHT22;70321;43.592;1.456;2023-06-24T07:08:44;21.08;77.91
65584;DHT22;70321;43.592;1.456;2023-06-24T07:11:09;21.11;77.83
65584;DHT22;70321;43.592;1.456;2023-06-24T07:13:35;21.18;77.57
65584;DHT22;70321;43.592;1.456;2023-06-24T07:16:00;21.24;77.62
65584;DHT22;70321;43.592;1.456;2023-06-24T07:18:25;21.25;76.66
65584;DHT22;70321;43.592;1.456;2023-06-24T07:20:55;21.31;76.41
65584;DHT22;70321;43.592;1.456;2023-06-24T07:23:28;21.36;76.06
65584;DHT22;70321;43.592;1.456;2023-06-24T07:25:54;21.42;76.11
65584;DHT22;70321;43.592;1.456;2023-06-24T07:28:19;21.48;75.96
65584;DHT22;70321;43.592;1.456;2023-06-24T07:30:44;21.53;75.77
65584;DHT22;70321;43.592;1.456;2023-06-24T07:33:10;21.56;76.05
65584;DHT22;70321;43.592;1.456;2023-06-24T07:35:35;21.60;75.86
65584;DHT22;70321;43.592;1.456;2023-06-24T07:38:01;21.66;75.95
65584;DHT22;70321;43.592;1.456;2023-06-24T07:40:26;21.72;75.92
65584;DHT22;70321;43.592;1.456;2023-06-24T07:42:53;21.76;75.79
65584;DHT22;70321;43.592;1.456;2023-06-24T07:45:18;21.78;75.16
65584;DHT22;70321;43.592;1.456;2023-06-24T07:47:44;21.85;75.63
65584;DHT22;70321;43.592;1.456;2023-06-24T07:50:09;21.86;75.84
65584;DHT22;70321;43.592;1.456;2023-06-24T07:52:36;21.94;75.93
65584;DHT22;70321;43.592;1.456;2023-06-24T07:55:02;21.99;75.84
65584;DHT22;70321;43.592;1.456;2023-06-24T07:57:28;22.03;75.19
65584;DHT22;70321;43.592;1.456;2023-06-24T07:59:54;22.06;75.00
65584;DHT22;70321;43.592;1.456;2023-06-24T08:02:20;22.09;74.20
65584;DHT22;70321;43.592;1.456;2023-06-24T08:04:45;22.13;73.89
65584;DHT22;70321;43.592;1.456;2023-06-24T08:07:11;22.17;73.75
65584;DHT22;70321;43.592;1.456;2023-06-24T08:09:36;22.18;71.72
65584;DHT22;70321;43.592;1.456;2023-06-24T08:12:02;22.24;72.87
65584;DHT22;70321;43.592;1.456;2023-06-24T08:14:27;22.29;72.23
65584;DHT22;70321;43.592;1.456;2023-06-24T08:16:52;22.36;69.34
65584;DHT22;70321;43.592;1.456;2023-06-24T08:19:18;22.39;70.59
65584;DHT22;70321;43.592;1.456;2023-06-24T08:21:46;22.44;68.87
65584;DHT22;70321;43.592;1.456;2023-06-24T08:24:11;22.47;70.31
65584;DHT22;70321;43.592;1.456;2023-06-24T08:26:37;22.53;70.49
65584;DHT22;70321;43.592;1.456;2023-06-24T08:29:03;22.53;70.59
65584;DHT22;70321;43.592;1.456;2023-06-24T08:31:28;22.63;68.99
65584;DHT22;70321;43.592;1.456;2023-06-24T08:33:54;22.65;68.76
65584;DHT22;70321;43.592;1.456;2023-06-24T08:36:21;22.69;68.75
65584;DHT22;70321;43.592;1.456;2023-06-24T08:38:48;22.75;68.96
65584;DHT22;70321;43.592;1.456;2023-06-24T08:41:14;22.78;68.38
65584;DHT22;70321;43.592;1.456;2023-06-24T08:43:39;22.87;67.41
65584;DHT22;70321;43.592;1.456;2023-06-24T08:46:05;22.91;66.22
65584;DHT22;70321;43.592;1.456;2023-06-24T08:48:31;22.95;64.49
65584;DHT22;70321;43.592;1.456;2023-06-24T08:50:58;23.01;64.19
65584;DHT22;70321;43.592;1.456;2023-06-24T08:53:26;23.11;64.84
65584;DHT22;70321;43.592;1.456;2023-06-24T08:55:53;23.15;64.03
65584;DHT22;70321;43.592;1.456;2023-06-24T08:58:20;23.20;64.01
65584;DHT22;70321;43.592;1.456;2023-06-24T09:00:45;23.22;64.72
65584;DHT22;70321;43.592;1.456;2023-06-24T09:03:11;23.26;65.37
65584;DHT22;70321;43.592;1.456;2023-06-24T09:05:36;23.30;65.24
65584;DHT22;70321;43.592;1.456;2023-06-24T09:08:01;23.37;64.94
65584;DHT22;70321;43.592;1.456;2023-06-24T09:10:34;23.41;63.86
65584;DHT22;70321;43.592;1.456;2023-06-24T09:13:04;23.50;63.34
65584;DHT22;70321;43.592;1.456;2023-06-24T09:15:31;23.59;63.73
65584;DHT22;70321;43.592;1.456;2023-06-24T09:17:57;23.70;63.87
65584;DHT22;70321;43.592;1.456;2023-06-24T09:20:22;23.80;64.18
65584;DHT22;70321;43.592;1.456;2023-06-24T09:22:49;23.89;61.74
65584;DHT22;70321;43.592;1.456;2023-06-24T09:25:18;23.94;61.93
65584;DHT22;70321;43.592;1.456;2023-06-24T09:27:48;24.03;62.83
65584;DHT22;70321;43.592;1.456;2023-06-24T09:32:49;24.21;62.65
65584;DHT22;70321;43.592;1.456;2023-06-24T09:35:20;24.27;61.61
65584;DHT22;70321;43.592;1.456;2023-06-24T09:37:54;24.28;60.43
65584;DHT22;70321;43.592;1.456;2023-06-24T09:40:22;24.37;60.98
65584;DHT22;70321;43.592;1.456;2023-06-24T09:42:55;24.41;61.81
65584;DHT22;70321;43.592;1.456;2023-06-24T09:45:25;24.43;61.13
65584;DHT22;70321;43.592;1.456;2023-06-24T09:47:52;24.54;61.16
65584;DHT22;70321;43.592;1.456;2023-06-24T09:50:17;24.63;59.83
65584;DHT22;70321;43.592;1.456;2023-06-24T09:52:44;24.71;60.82
65584;DHT22;70321;43.592;1.456;2023-06-24T09:55:12;24.82;60.18
65584;DHT22;70321;43.592;1.456;2023-06-24T09:57:39;24.95;61.21
65584;DHT22;70321;43.592;1.456;2023-06-24T10:00:06;25.07;61.39
65584;DHT22;70321;43.592;1.456;2023-06-24T10:02:32;25.14;60.83
65584;DHT22;70321;43.592;1.456;2023-06-24T10:05:00;25.26;60.94
65584;DHT22;70321;43.592;1.456;2023-06-24T10:07:26;25.36;60.66
65584;DHT22;70321;43.592;1.456;2023-06-24T10:09:53;25.36;58.14
65584;DHT22;70321;43.592;1.456;2023-06-24T10:12:19;25.33;57.13
65584;DHT22;70321;43.592;1.456;2023-06-24T10:14:45;25.32;57.04
65584;DHT22;70321;43.592;1.456;2023-06-24T10:17:11;25.32;57.45
65584;DHT22;70321;43.592;1.456;2023-06-24T10:19:38;25.33;55.60
65584;DHT22;70321;43.592;1.456;2023-06-24T10:22:07;25.36;55.59
65584;DHT22;70321;43.592;1.456;2023-06-24T10:24:35;25.43;55.87
65584;DHT22;70321;43.592;1.456;2023-06-24T10:27:06;25.49;56.34
65584;DHT22;70321;43.592;1.456;2023-06-24T10:29:38;25.53;55.90
65584;DHT22;70321;43.592;1.456;2023-06-24T10:32:09;25.59;53.45
65584;DHT22;70321;43.592;1.456;2023-06-24T10:37:23;25.61;53.22
65584;DHT22;70321;43.592;1.456;2023-06-24T10:42:25;25.63;54.68
65584;DHT22;70321;43.592;1.456;2023-06-24T10:44:52;25.72;55.90
65584;DHT22;70321;43.592;1.456;2023-06-24T10:47:18;25.83;55.95
65584;DHT22;70321;43.592;1.456;2023-06-24T10:49:43;25.87;54.91
65584;DHT22;70321;43.592;1.456;2023-06-24T10:52:12;25.89;54.47
65584;DHT22;70321;43.592;1.456;2023-06-24T10:54:39;25.97;54.62
65584;DHT22;70321;43.592;1.456;2023-06-24T10:57:05;26.01;55.40
65584;DHT22;70321;43.592;1.456;2023-06-24T10:59:34;26.06;55.89
65584;DHT22;70321;43.592;1.456;2023-06-24T11:02:00;26.16;55.99
65584;DHT22;70321;43.592;1.456;2023-06-24T11:04:25;26.21;55.76
65584;DHT22;70321;43.592;1.456;2023-06-24T11:07:01;26.26;54.31
65584;DHT22;70321;43.592;1.456;2023-06-24T11:09:27;26.30;53.74
65584;DHT22;70321;43.592;1.456;2023-06-24T11:11:52;26.43;55.39
65584;DHT22;70321;43.592;1.456;2023-06-24T11:14:19;26.55;56.02
65584;DHT22;70321;43.592;1.456;2023-06-24T11:16:45;26.58;55.13
65584;DHT22;70321;43.592;1.456;2023-06-24T11:19:11;26.64;55.30
65584;DHT22;70321;43.592;1.456;2023-06-24T11:21:36;26.67;54.74
65584;DHT22;70321;43.592;1.456;2023-06-24T11:24:03;26.68;54.66
65584;DHT22;70321;43.592;1.456;2023-06-24T11:26:28;26.70;53.50
65584;DHT22;70321;43.592;1.456;2023-06-24T11:28:54;26.70;53.40
65584;DHT22;70321;43.592;1.456;2023-06-24T11:31:27;26.67;53.54
65584;DHT22;70321;43.592;1.456;2023-06-24T11:34:03;26.70;53.82
65584;DHT22;70321;43.592;1.456;2023-06-24T11:36:28;26.80;53.86
65584;DHT22;70321;43.592;1.456;2023-06-24T11:38:54;26.88;53.40
65584;DHT22;70321;43.592;1.456;2023-06-24T11:41:23;26.94;52.20
65584;DHT22;70321;43.592;1.456;2023-06-24T11:43:51;27.01;51.30
65584;DHT22;70321;43.592;1.456;2023-06-24T11:46:30;27.06;51.27
65584;DHT22;70321;43.592;1.456;2023-06-24T11:49:07;27.14;51.74
65584;DHT22;70321;43.592;1.456;2023-06-24T11:51:37;27.19;51.64
65584;DHT22;70321;43.592;1.456;2023-06-24T11:54:05;27.29;50.84
65584;DHT22;70321;43.592;1.456;2023-06-24T11:56:38;27.39;52.13
65584;DHT22;70321;43.592;1.456;2023-06-24T11:59:04;27.47;51.19
65584;DHT22;70321;43.592;1.456;2023-06-24T12:01:34;27.55;51.14
65584;DHT22;70321;43.592;1.456;2023-06-24T12:06:39;27.73;51.67
65584;DHT22;70321;43.592;1.456;2023-06-24T12:09:05;27.71;50.77
65584;DHT22;70321;43.592;1.456;2023-06-24T12:11:30;27.70;49.57
65584;DHT22;70321;43.592;1.456;2023-06-24T12:13:56;27.74;51.52
65584;DHT22;70321;43.592;1.456;2023-06-24T12:16:21;27.73;50.45
65584;DHT22;70321;43.592;1.456;2023-06-24T12:18:48;27.69;51.25
65584;DHT22;70321;43.592;1.456;2023-06-24T12:21:13;27.63;51.66
65584;DHT22;70321;43.592;1.456;2023-06-24T12:23:39;27.60;51.30
65584;DHT22;70321;43.592;1.456;2023-06-24T12:26:04;27.69;52.85
65584;DHT22;70321;43.592;1.456;2023-06-24T12:28:30;27.76;50.13
65584;DHT22;70321;43.592;1.456;2023-06-24T12:30:58;27.82;50.31
65584;DHT22;70321;43.592;1.456;2023-06-24T12:33:24;27.85;50.66
65584;DHT22;70321;43.592;1.456;2023-06-24T12:35:50;27.93;51.86
65584;DHT22;70321;43.592;1.456;2023-06-24T12:38:15;27.94;52.30
65584;DHT22;70321;43.592;1.456;2023-06-24T12:40:44;27.96;51.56
65584;DHT22;70321;43.592;1.456;2023-06-24T12:43:13;27.97;50.88
65584;DHT22;70321;43.592;1.456;2023-06-24T12:45:38;27.99;51.03
65584;DHT22;70321;43.592;1.456;2023-06-24T12:48:04;28.03;50.70
65584;DHT22;70321;43.592;1.456;2023-06-24T12:50:29;28.13;50.53
65584;DHT22;70321;43.592;1.456;2023-06-24T12:52:58;28.16;51.39
65584;DHT22;70321;43.592;1.456;2023-06-24T12:55:23;28.21;51.30
65584;DHT22;70321;43.592;1.456;2023-06-24T12:57:49;28.28;51.02
65584;DHT22;70321;43.592;1.456;2023-06-24T13:00:14;28.34;52.07
65584;DHT22;70321;43.592;1.456;2023-06-24T13:02:40;28.31;51.02
65584;DHT22;70321;43.592;1.456;2023-06-24T13:05:06;28.34;51.00
65584;DHT22;70321;43.592;1.456;2023-06-24T13:07:31;28.39;50.46
65584;DHT22;70321;43.592;1.456;2023-06-24T13:09:57;28.39;51.61
65584;DHT22;70321;43.592;1.456;2023-06-24T13:12:24;28.36;51.33
65584;DHT22;70321;43.592;1.456;2023-06-24T13:14:50;28.33;51.18
65584;DHT22;70321;43.592;1.456;2023-06-24T13:17:15;28.34;50.10
65584;DHT22;70321;43.592;1.456;2023-06-24T13:19:41;28.41;49.29
65584;DHT22;70321;43.592;1.456;2023-06-24T13:22:06;28.47;50.17
65584;DHT22;70321;43.592;1.456;2023-06-24T13:24:32;28.50;50.00
65584;DHT22;70321;43.592;1.456;2023-06-24T13:26:57;28.48;47.81
65584;DHT22;70321;43.592;1.456;2023-06-24T13:29:22;28.54;49.05
65584;DHT22;70321;43.592;1.456;2023-06-24T13:31:48;28.50;47.56
65584;DHT22;70321;43.592;1.456;2023-06-24T13:34:13;28.51;48.62
65584;DHT22;70321;43.592;1.456;2023-06-24T13:36:39;28.60;49.82
65584;DHT22;70321;43.592;1.456;2023-06-24T13:39:06;28.62;49.64
65584;DHT22;70321;43.592;1.456;2023-06-24T13:41:32;28.68;51.41
65584;DHT22;70321;43.592;1.456;2023-06-24T13:44:02;28.69;48.33
65584;DHT22;70321;43.592;1.456;2023-06-24T13:46:29;28.68;45.29
65584;DHT22;70321;43.592;1.456;2023-06-24T13:48:55;28.64;45.28
65584;DHT22;70321;43.592;1.456;2023-06-24T13:51:21;28.64;47.76
65584;DHT22;70321;43.592;1.456;2023-06-24T13:53:51;28.64;46.96
65584;DHT22;70321;43.592;1.456;2023-06-24T13:56:17;28.68;46.91
65584;DHT22;70321;43.592;1.456;2023-06-24T13:58:43;28.72;46.04
65584;DHT22;70321;43.592;1.456;2023-06-24T14:01:09;28.76;47.77
65584;DHT22;70321;43.592;1.456;2023-06-24T14:03:34;28.82;48.05
65584;DHT22;70321;43.592;1.456;2023-06-24T14:06:00;28.88;47.41
65584;DHT22;70321;43.592;1.456;2023-06-24T14:08:27;28.99;48.20
65584;DHT22;70321;43.592;1.456;2023-06-24T14:10:54;29.06;48.03
65584;DHT22;70321;43.592;1.456;2023-06-24T14:13:19;29.09;47.67
65584;DHT22;70321;43.592;1.456;2023-06-24T14:15:44;29.04;47.19
65584;DHT22;70321;43.592;1.456;2023-06-24T14:18:10;28.95;45.74
65584;DHT22;70321;43.592;1.456;2023-06-24T14:20:35;28.95;48.41
65584;DHT22;70321;43.592;1.456;2023-06-24T14:23:01;28.92;48.88
65584;DHT22;70321;43.592;1.456;2023-06-24T14:25:26;28.94;49.51
65584;DHT22;70321;43.592;1.456;2023-06-24T14:27:52;28.90;48.18
65584;DHT22;70321;43.592;1.456;2023-06-24T14:30:17;28.91;49.68
65584;DHT22;70321;43.592;1.456;2023-06-24T14:32:43;28.91;48.63
65584;DHT22;70321;43.592;1.456;2023-06-24T14:35:08;28.92;47.40
65584;DHT22;70321;43.592;1.456;2023-06-24T14:37:34;28.96;47.42
65584;DHT22;70321;43.592;1.456;2023-06-24T14:39:59;28.99;48.41
65584;DHT22;70321;43.592;1.456;2023-06-24T14:42:24;29.05;50.00
65584;DHT22;70321;43.592;1.456;2023-06-24T14:44:50;29.04;50.16
65584;DHT22;70321;43.592;1.456;2023-06-24T14:47:15;28.98;49.41
65584;DHT22;70321;43.592;1.456;2023-06-24T14:49:41;28.98;48.42
65584;DHT22;70321;43.592;1.456;2023-06-24T14:52:09;28.99;48.50
65584;DHT22;70321;43.592;1.456;2023-06-24T14:54:34;28.98;47.72
65584;DHT22;70321;43.592;1.456;2023-06-24T14:57:00;28.98;48.19
65584;DHT22;70321;43.592;1.456;2023-06-24T14:59:25;28.95;48.11
65584;DHT22;70321;43.592;1.456;2023-06-24T15:01:50;28.94;48.84
65584;DHT22;70321;43.592;1.456;2023-06-24T15:04:16;28.92;48.23
65584;DHT22;70321;43.592;1.456;2023-06-24T15:06:41;28.95;49.70
65584;DHT22;70321;43.592;1.456;2023-06-24T15:09:07;28.91;49.31
65584;DHT22;70321;43.592;1.456;2023-06-24T15:11:32;28.94;49.80
65584;DHT22;70321;43.592;1.456;2023-06-24T15:13:57;28.92;49.53
65584;DHT22;70321;43.592;1.456;2023-06-24T15:16:23;28.96;51.40
65584;DHT22;70321;43.592;1.456;2023-06-24T15:18:48;28.96;48.41
65584;DHT22;70321;43.592;1.456;2023-06-24T15:21:15;29.02;47.53
65584;DHT22;70321;43.592;1.456;2023-06-24T15:23:41;29.02;46.80
65584;DHT22;70321;43.592;1.456;2023-06-24T15:26:06;29.09;46.76
65584;DHT22;70321;43.592;1.456;2023-06-24T15:28:32;29.12;47.52
65584;DHT22;70321;43.592;1.456;2023-06-24T15:30:59;29.18;47.97
65584;DHT22;70321;43.592;1.456;2023-06-24T15:33:24;29.20;48.92
65584;DHT22;70321;43.592;1.456;2023-06-24T15:35:50;29.23;48.38
65584;DHT22;70321;43.592;1.456;2023-06-24T15:38:15;29.29;48.50
65584;DHT22;70321;43.592;1.456;2023-06-24T15:40:41;29.28;49.40